Time;durP1;ratioP1;P1;durP2;ratioP2;P2;SDS_P1;SDS_P2;PMS_P1;PMS_P2;Temp;Humidity;BMP_temperature;BMP_pressure;BME280_temperature;BME280_humidity;BME280_pressure;Samples;Min_cycle;Max_cycle;Signal;HPM_P1;HPM_P2
2021/12/15 00:01:27;;;;;;;29.60;16.48;;;10.70;99.90;;;;;;5119547;27;20596;-77
2021/12/15 00:03:53;;;;;;;39.47;17.75;;;10.70;99.90;;;;;;5119202;27;20078;-78
2021/12/15 00:06:19;;;;;;;33.65;19.27;;;10.70;99.90;;;;;;5119824;27;20158;-77
2021/12/15 00:08:49;;;;;;;26.17;17.73;;;10.70;99.90;;;;;;5119812;27;20082;-78
2021/12/15 00:11:16;;;;;;;34.33;18.80;;;10.70;99.90;;;;;;5119137;27;20130;-77
2021/12/15 00:13:43;;;;;;;30.02;16.23;;;10.80;99.90;;;;;;5137968;27;20066;-77
2021/12/15 00:16:11;;;;;;;35.40;19.13;;;10.70;99.90;;;;;;5119437;27;20038;-78
2021/12/15 00:18:41;;;;;;;27.27;16.58;;;10.80;99.90;;;;;;5137917;27;20046;-77
2021/12/15 00:21:09;;;;;;;37.13;17.65;;;10.70;99.90;;;;;;5139621;27;20080;-78
2021/12/15 00:23:36;;;;;;;30.02;16.80;;;10.80;99.90;;;;;;5138639;27;20807;-78
2021/12/15 00:26:02;;;;;;;26.15;15.48;;;10.80;99.90;;;;;;5137986;27;20046;-77
2021/12/15 00:28:28;;;;;;;33.00;15.77;;;10.80;99.90;;;;;;5119841;27;20043;-78
2021/12/15 00:30:54;;;;;;;31.65;16.65;;;10.80;99.90;;;;;;5120906;27;20047;-78
2021/12/15 00:33:19;;;;;;;29.20;16.80;;;10.80;99.90;;;;;;5139137;27;20042;-77
2021/12/15 00:35:46;;;;;;;33.50;16.35;;;10.80;99.90;;;;;;5120683;27;20054;-77
2021/12/15 00:38:12;;;;;;;32.78;16.27;;;10.80;99.90;;;;;;5139351;27;20145;-78
2021/12/15 00:40:37;;;;;;;29.95;16.77;;;10.80;99.90;;;;;;5120582;27;20058;-77
2021/12/15 00:43:03;;;;;;;29.15;16.63;;;10.80;99.90;;;;;;5139180;27;20076;-77
2021/12/15 00:45:30;;;;;;;32.50;16.75;;;10.80;99.90;;;;;;5138929;27;20141;-77
2021/12/15 00:47:56;;;;;;;36.10;16.50;;;10.80;99.90;;;;;;5120850;27;20177;-77
2021/12/15 00:50:25;;;;;;;28.88;17.38;;;10.80;99.90;;;;;;5120860;27;20065;-78
2021/12/15 00:52:51;;;;;;;34.38;17.38;;;10.80;99.90;;;;;;5138980;27;20656;-77
2021/12/15 00:55:20;;;;;;;27.35;16.73;;;10.80;99.90;;;;;;5139287;27;20042;-77
2021/12/15 00:57:46;;;;;;;27.13;16.88;;;10.80;99.90;;;;;;5139113;27;20154;-77
2021/12/15 01:00:17;;;;;;;30.92;17.58;;;10.80;99.90;;;;;;5139035;27;20404;-78
2021/12/15 01:02:43;;;;;;;29.00;16.67;;;10.80;99.90;;;;;;5135752;27;20046;-78
2021/12/15 01:05:11;;;;;;;32.40;17.40;;;10.80;99.90;;;;;;5138601;27;20052;-77
2021/12/15 01:07:37;;;;;;;29.17;18.02;;;10.80;99.90;;;;;;5139310;27;20046;-77
2021/12/15 01:10:06;;;;;;;28.13;17.73;;;10.80;99.90;;;;;;5120579;27;20057;-77
2021/12/15 01:20:46;;;;;;;32.97;17.58;;;10.80;99.90;;;;;;5128285;27;20054;-77
2021/12/15 01:23:16;;;;;;;27.90;17.38;;;10.80;99.90;;;;;;5139855;27;20051;-78
2021/12/15 01:25:49;;;;;;;25.15;15.43;;;10.80;99.90;;;;;;5125788;27;20066;-78
2021/12/15 01:28:15;;;;;;;30.25;17.17;;;10.80;99.90;;;;;;5146348;27;20046;-78
2021/12/15 01:30:44;;;;;;;28.67;18.17;;;10.80;99.90;;;;;;5146904;27;20058;-78
2021/12/15 01:33:10;;;;;;;32.92;17.23;;;10.80;99.90;;;;;;5134479;27;20133;-78
2021/12/15 01:35:38;;;;;;;27.40;16.92;;;10.80;99.90;;;;;;5146411;27;20051;-78
2021/12/15 01:38:05;;;;;;;35.55;17.52;;;10.80;99.90;;;;;;5139816;27;20042;-79
2021/12/15 01:40:37;;;;;;;25.08;17.10;;;10.80;99.90;;;;;;5150595;27;20108;-78
2021/12/15 01:43:15;;;;;;;28.02;17.55;;;10.80;99.90;;;;;;5155235;27;21049;-78
2021/12/15 01:48:26;;;;;;;30.88;18.33;;;10.80;99.90;;;;;;5127739;27;20851;-79
2021/12/15 01:50:52;;;;;;;31.58;18.05;;;10.80;99.90;;;;;;5127729;27;20054;-78
2021/12/15 01:53:18;;;;;;;27.23;18.08;;;10.80;99.90;;;;;;5148324;27;20049;-78
2021/12/15 01:55:45;;;;;;;41.53;20.58;;;10.80;99.90;;;;;;5146607;27;20057;-79
2021/12/15 01:58:11;;;;;;;27.00;17.27;;;10.80;99.90;;;;;;5149942;27;20493;-77
2021/12/15 02:00:42;;;;;;;31.45;17.58;;;10.80;99.90;;;;;;5128718;27;20046;-79
2021/12/15 02:03:08;;;;;;;29.85;19.08;;;10.80;99.90;;;;;;5145455;27;20119;-78
2021/12/15 02:05:35;;;;;;;29.48;17.05;;;10.90;99.90;;;;;;5127319;27;20050;-79
2021/12/15 02:08:03;;;;;;;27.15;17.45;;;10.80;99.90;;;;;;5146124;27;20157;-78
2021/12/15 02:10:33;;;;;;;33.10;17.60;;;11.30;99.90;;;;;;5148666;27;20118;-79
2021/12/15 02:13:00;;;;;;;29.00;18.23;;;10.80;99.90;;;;;;5146856;27;20155;-79
2021/12/15 02:15:34;;;;;;;26.67;16.55;;;10.80;99.90;;;;;;5152334;27;20046;-79
2021/12/15 02:18:01;;;;;;;35.92;18.65;;;10.90;99.90;;;;;;5120526;27;20075;-78
2021/12/15 02:20:34;;;;;;;40.08;18.42;;;10.90;99.90;;;;;;5125145;27;20061;-78
2021/12/15 02:23:00;;;;;;;26.00;17.30;;;10.90;99.90;;;;;;5121803;27;20057;-79
2021/12/15 02:25:26;;;;;;;29.13;17.45;;;10.80;99.90;;;;;;5149488;27;20046;-79
2021/12/15 02:27:52;;;;;;;30.50;17.02;;;10.90;99.90;;;;;;5147590;27;20050;-79
2021/12/15 02:30:45;;;;;;;23.40;15.90;;;10.80;99.90;;;;;;5159127;27;20046;-79
2021/12/15 02:38:43;;;;;;;31.23;19.48;;;10.90;99.90;;;;;;5141636;27;20126;-79
2021/12/15 02:41:20;;;;;;;38.70;18.88;;;10.90;99.90;;;;;;5143225;27;20058;-79
2021/12/15 02:43:59;;;;;;;36.03;17.00;;;10.90;99.90;;;;;;5124365;27;20082;-79
2021/12/15 02:46:26;;;;;;;35.00;18.20;;;10.90;99.90;;;;;;5148236;27;20047;-78
2021/12/15 02:48:52;;;;;;;33.65;19.63;;;10.90;99.90;;;;;;5124403;27;20358;-78
2021/12/15 02:51:19;;;;;;;29.10;17.38;;;10.90;99.90;;;;;;5145096;27;20089;-78
2021/12/15 02:53:45;;;;;;;33.80;18.45;;;10.90;99.90;;;;;;5123261;27;20046;-78
2021/12/15 02:56:12;;;;;;;29.90;19.50;;;10.90;99.90;;;;;;5142968;27;20054;-78
2021/12/15 02:58:47;;;;;;;31.80;18.02;;;11.00;99.90;;;;;;5123964;27;20529;-78
2021/12/15 03:01:19;;;;;;;34.55;19.77;;;10.90;99.90;;;;;;5141840;27;20104;-78
2021/12/15 03:06:26;;;;;;;30.90;20.17;;;10.90;99.90;;;;;;5142181;27;20050;-78
2021/12/15 03:09:08;;;;;;;31.30;18.35;;;10.90;99.90;;;;;;5118245;27;20062;-78
2021/12/15 03:17:03;;;;;;;28.65;18.27;;;10.90;99.90;;;;;;5121245;27;20134;-78
2021/12/15 03:19:29;;;;;;;40.42;19.73;;;10.90;99.90;;;;;;5119776;27;20051;-78
2021/12/15 03:21:54;;;;;;;42.08;20.80;;;10.90;99.90;;;;;;5124662;27;20061;-78
2021/12/15 03:24:23;;;;;;;34.58;20.58;;;10.90;99.90;;;;;;5124985;27;20115;-78
2021/12/15 03:27:02;;;;;;;36.88;20.88;;;10.90;99.90;;;;;;5119568;27;20050;-78
2021/12/15 03:37:27;;;;;;;32.47;20.60;;;10.90;99.90;;;;;;5124643;27;20055;-78
2021/12/15 03:40:16;;;;;;;33.83;19.83;;;10.90;99.90;;;;;;5121312;27;20043;-78
2021/12/15 03:42:55;;;;;;;31.23;17.85;;;10.90;99.90;;;;;;5120134;27;20043;-78
2021/12/15 03:45:35;;;;;;;43.08;22.48;;;10.90;99.90;;;;;;5121247;27;20897;-79
2021/12/15 03:48:09;;;;;;;34.15;20.67;;;10.90;99.90;;;;;;5120298;27;20074;-78
2021/12/15 03:50:35;;;;;;;35.50;19.27;;;10.90;99.90;;;;;;5122019;27;20120;-78
2021/12/15 03:53:03;;;;;;;34.97;20.02;;;10.90;99.90;;;;;;5119488;27;20050;-78
2021/12/15 03:55:30;;;;;;;32.15;20.02;;;10.90;99.90;;;;;;5119126;27;20043;-78
2021/12/15 03:57:58;;;;;;;44.63;22.63;;;10.90;99.90;;;;;;5118221;27;20054;-78
2021/12/15 04:00:24;;;;;;;41.60;21.63;;;10.90;99.90;;;;;;5120260;27;20043;-78
2021/12/15 04:02:51;;;;;;;35.22;21.83;;;10.90;99.90;;;;;;5119507;27;20076;-78
2021/12/15 04:05:19;;;;;;;38.92;21.60;;;10.90;99.90;;;;;;5120092;27;20039;-78
2021/12/15 04:07:45;;;;;;;32.90;21.05;;;10.90;99.90;;;;;;5118760;27;20051;-78
2021/12/15 04:10:14;;;;;;;35.40;22.08;;;10.90;99.90;;;;;;5134924;27;20082;-78
2021/12/15 04:12:42;;;;;;;35.17;19.90;;;10.90;99.90;;;;;;5140757;27;20069;-78
2021/12/15 04:17:50;;;;;;;39.47;19.95;;;10.90;99.90;;;;;;5139799;27;20074;-76
2021/12/15 04:20:18;;;;;;;40.28;21.45;;;10.90;99.90;;;;;;5122033;27;20055;-76
2021/12/15 04:22:44;;;;;;;39.67;22.60;;;10.90;99.90;;;;;;5140722;27;20102;-75
2021/12/15 04:25:14;;;;;;;39.80;21.65;;;10.90;99.90;;;;;;5143048;27;20062;-76
2021/12/15 04:27:49;;;;;;;38.33;20.80;;;10.80;99.90;;;;;;5140271;27;20054;-76
2021/12/15 04:30:15;;;;;;;41.88;23.17;;;10.90;99.90;;;;;;5140415;27;20046;-75
2021/12/15 04:32:45;;;;;;;36.45;21.67;;;10.90;99.90;;;;;;5114863;27;20118;-76
2021/12/15 04:35:13;;;;;;;35.80;22.90;;;10.80;99.90;;;;;;5122299;27;20787;-75
2021/12/15 04:37:39;;;;;;;45.10;22.90;;;10.90;99.90;;;;;;5143006;27;20050;-76
2021/12/15 04:40:07;;;;;;;38.47;23.30;;;10.90;99.90;;;;;;5133789;27;20051;-76
2021/12/15 04:42:32;;;;;;;41.63;21.85;;;10.90;99.90;;;;;;5115441;27;20836;-76
2021/12/15 04:44:58;;;;;;;39.50;22.50;;;10.90;99.90;;;;;;5146100;27;20058;-76
2021/12/15 04:47:25;;;;;;;41.47;23.33;;;10.90;99.90;;;;;;5121801;27;20115;-75
2021/12/15 04:49:54;;;;;;;42.75;23.38;;;10.90;99.90;;;;;;5141687;27;20079;-75
2021/12/15 04:52:23;;;;;;;47.90;24.48;;;10.90;99.90;;;;;;5121253;27;20846;-75
2021/12/15 04:54:49;;;;;;;38.65;22.00;;;10.90;99.90;;;;;;5140122;27;20043;-75
2021/12/15 04:57:17;;;;;;;38.15;22.30;;;10.80;99.90;;;;;;5140460;27;20043;-75
2021/12/15 04:59:44;;;;;;;39.35;22.30;;;10.80;99.90;;;;;;5139550;27;20046;-75
2021/12/15 05:02:12;;;;;;;43.65;21.48;;;10.80;99.90;;;;;;5139494;27;20252;-75
2021/12/15 05:04:37;;;;;;;43.25;23.90;;;10.80;99.90;;;;;;5140449;27;20049;-75
2021/12/15 05:07:03;;;;;;;35.70;21.65;;;10.80;99.90;;;;;;5120688;27;20043;-75
2021/12/15 05:09:29;;;;;;;37.00;22.77;;;11.40;99.90;;;;;;5139719;27;20050;-75
2021/12/15 05:11:56;;;;;;;42.15;22.27;;;10.80;99.90;;;;;;5139811;27;20636;-75
2021/12/15 05:14:23;;;;;;;42.20;22.45;;;10.90;99.90;;;;;;5139216;27;20144;-76
2021/12/15 05:16:51;;;;;;;44.92;24.40;;;10.80;99.90;;;;;;5139253;27;20035;-75
2021/12/15 05:19:16;;;;;;;39.47;22.65;;;10.80;99.90;;;;;;5140447;27;20053;-75
2021/12/15 05:21:42;;;;;;;44.55;23.45;;;10.80;99.90;;;;;;5139185;27;20050;-75
2021/12/15 05:24:21;;;;;;;36.15;22.90;;;10.80;99.90;;;;;;5123314;27;20150;-75
2021/12/15 05:26:46;;;;;;;47.55;24.23;;;10.80;99.90;;;;;;5139561;27;20424;-75
2021/12/15 05:29:12;;;;;;;41.58;23.55;;;10.80;99.90;;;;;;5139974;27;20043;-75
2021/12/15 05:31:39;;;;;;;38.47;22.52;;;10.80;99.90;;;;;;5139744;27;20103;-75
2021/12/15 05:34:05;;;;;;;38.03;22.88;;;10.80;99.90;;;;;;5139294;27;20050;-75
2021/12/15 05:36:31;;;;;;;48.97;22.98;;;10.80;99.90;;;;;;5123520;27;20051;-75
2021/12/15 05:38:57;;;;;;;43.17;25.05;;;10.80;99.90;;;;;;5139978;27;20039;-75
2021/12/15 05:41:23;;;;;;;37.05;22.35;;;10.80;99.90;;;;;;5139875;27;20120;-75
2021/12/15 05:43:49;;;;;;;51.70;24.25;;;10.80;99.90;;;;;;5121317;27;20462;-75
2021/12/15 05:46:15;;;;;;;38.50;22.80;;;10.80;99.90;;;;;;5127925;27;20047;-75
2021/12/15 05:48:40;;;;;;;38.85;22.65;;;10.80;99.90;;;;;;5139629;27;20846;-75
2021/12/15 05:51:06;;;;;;;42.42;21.52;;;10.80;99.90;;;;;;5120346;27;20435;-74
2021/12/15 05:53:32;;;;;;;48.33;23.98;;;10.80;99.90;;;;;;5137233;27;20115;-75
2021/12/15 05:55:57;;;;;;;46.53;24.73;;;10.80;99.90;;;;;;5136833;27;20046;-75
2021/12/15 05:58:23;;;;;;;43.70;21.73;;;10.80;99.90;;;;;;5117797;27;20051;-75
2021/12/15 06:00:50;;;;;;;37.40;22.73;;;10.80;99.90;;;;;;5137077;27;20116;-76
2021/12/15 06:03:16;;;;;;;37.70;25.20;;;10.80;99.90;;;;;;5117106;27;20776;-75
2021/12/15 06:05:42;;;;;;;42.33;24.00;;;10.80;99.90;;;;;;5137455;27;20508;-75
2021/12/15 06:08:08;;;;;;;47.35;24.90;;;10.80;99.90;;;;;;5137518;27;20050;-76
2021/12/15 06:10:35;;;;;;;43.60;23.83;;;10.80;99.90;;;;;;5136710;27;20062;-75
2021/12/15 06:13:03;;;;;;;44.80;23.42;;;10.80;99.90;;;;;;5137840;27;20038;-76
2021/12/15 06:15:30;;;;;;;38.25;23.20;;;10.80;99.90;;;;;;5141147;27;20058;-76
2021/12/15 06:18:00;;;;;;;43.15;22.10;;;10.80;99.90;;;;;;5140455;27;20043;-75
2021/12/15 06:20:28;;;;;;;36.97;21.60;;;10.90;99.90;;;;;;5141583;27;20082;-75
2021/12/15 06:22:55;;;;;;;38.45;22.35;;;10.90;99.90;;;;;;5123037;27;20054;-76
2021/12/15 06:25:22;;;;;;;42.47;21.58;;;10.80;99.90;;;;;;5143635;27;20052;-75
2021/12/15 06:27:48;;;;;;;44.28;22.45;;;10.80;99.90;;;;;;5140329;27;20047;-75
2021/12/15 06:30:14;;;;;;;42.15;22.98;;;10.80;99.90;;;;;;5122574;27;20051;-75
2021/12/15 06:32:39;;;;;;;36.22;20.98;;;10.80;99.90;;;;;;5140667;27;20174;-75
2021/12/15 06:35:06;;;;;;;43.15;23.10;;;10.80;99.90;;;;;;5141801;27;20051;-75
2021/12/15 06:37:31;;;;;;;45.85;23.70;;;10.50;99.90;;;;;;5119479;27;20102;-75
2021/12/15 06:39:57;;;;;;;36.58;21.58;;;10.80;99.90;;;;;;5142513;27;20640;-75
2021/12/15 06:42:23;;;;;;;39.25;22.42;;;10.80;99.90;;;;;;5141613;27;20055;-75
2021/12/15 06:44:48;;;;;;;40.30;21.30;;;10.80;99.90;;;;;;5145848;27;20038;-75
2021/12/15 06:58:12;;;;;;;41.65;24.15;;;10.80;99.90;;;;;;5141559;27;20119;-75
2021/12/15 07:00:46;;;;;;;39.92;23.88;;;10.80;99.90;;;;;;5123002;27;20537;-75
2021/12/15 07:03:13;;;;;;;40.88;22.08;;;10.90;99.90;;;;;;5122889;27;20050;-75
2021/12/15 07:05:39;;;;;;;37.53;21.58;;;10.80;99.90;;;;;;5140926;27;20051;-75
2021/12/15 07:08:07;;;;;;;36.00;21.17;;;10.80;99.90;;;;;;5122972;27;20146;-75
2021/12/15 07:10:37;;;;;;;37.38;23.67;;;10.80;99.90;;;;;;5141670;27;20134;-75
2021/12/15 07:13:04;;;;;;;39.00;20.05;;;10.80;99.90;;;;;;5141649;27;20082;-77
2021/12/15 07:15:31;;;;;;;34.85;21.85;;;10.80;99.90;;;;;;5141793;27;20786;-77
2021/12/15 07:18:02;;;;;;;34.40;21.00;;;10.80;99.90;;;;;;5141362;27;20078;-77
2021/12/15 07:22:55;;;;;;;34.95;19.08;;;10.80;99.90;;;;;;5141643;27;20532;-77
2021/12/15 07:25:21;;;;;;;40.63;22.88;;;10.80;99.90;;;;;;5141458;27;20410;-77
2021/12/15 07:27:47;;;;;;;36.72;21.25;;;10.80;99.90;;;;;;5122553;27;20055;-76
2021/12/15 07:30:13;;;;;;;42.85;22.05;;;10.80;99.90;;;;;;5123474;27;20042;-77
2021/12/15 07:32:39;;;;;;;47.38;21.73;;;10.80;99.90;;;;;;5122688;27;20050;-77
2021/12/15 07:35:07;;;;;;;35.95;21.55;;;10.80;99.90;;;;;;5141401;27;20038;-77
2021/12/15 07:37:33;;;;;;;37.63;21.10;;;10.80;99.90;;;;;;5143440;27;20050;-77
2021/12/15 07:40:00;;;;;;;29.67;19.77;;;10.80;99.90;;;;;;5123765;27;20163;-77
2021/12/15 07:42:43;;;;;;;40.25;20.15;;;10.80;99.90;;;;;;5140903;27;20149;-76
2021/12/15 07:45:10;;;;;;;36.58;23.02;;;10.80;99.90;;;;;;5142637;27;20034;-77
2021/12/15 07:47:36;;;;;;;30.38;19.27;;;10.80;99.90;;;;;;5141544;27;20099;-77
2021/12/15 07:50:03;;;;;;;40.58;23.88;;;10.80;99.90;;;;;;5122798;27;20054;-77
2021/12/15 07:52:29;;;;;;;35.10;20.00;;;10.90;99.90;;;;;;5141562;27;20078;-76
2021/12/15 07:54:55;;;;;;;35.00;21.83;;;10.80;99.90;;;;;;5140878;27;20046;-77
2021/12/15 07:57:22;;;;;;;35.17;19.00;;;10.80;99.90;;;;;;5141321;27;20435;-76
2021/12/15 07:59:50;;;;;;;31.85;18.27;;;10.80;99.90;;;;;;5141718;27;20043;-77
2021/12/15 08:02:16;;;;;;;41.08;21.00;;;10.80;99.90;;;;;;5140774;27;20042;-77
2021/12/15 08:04:42;;;;;;;31.27;18.08;;;10.80;99.90;;;;;;5141751;27;20066;-77
2021/12/15 08:07:08;;;;;;;31.75;17.10;;;10.80;99.90;;;;;;5141307;27;20196;-76
2021/12/15 08:09:34;;;;;;;32.47;17.80;;;10.90;99.90;;;;;;5140423;27;20146;-76
2021/12/15 08:12:00;;;;;;;26.67;18.30;;;10.90;99.90;;;;;;5141457;27;20050;-76
2021/12/15 08:14:25;;;;;;;26.35;17.30;;;10.90;99.90;;;;;;5134605;27;20161;-77
2021/12/15 08:16:51;;;;;;;29.88;15.75;;;10.90;99.90;;;;;;5140556;27;20085;-76
2021/12/15 08:19:18;;;;;;;32.60;16.25;;;11.00;99.90;;;;;;5141464;27;20046;-76
2021/12/15 08:21:45;;;;;;;26.58;15.85;;;11.00;99.90;;;;;;5141619;27;20141;-76
2021/12/15 08:24:11;;;;;;;29.88;15.55;;;11.00;99.90;;;;;;5123157;27;20244;-76
2021/12/15 08:26:36;;;;;;;31.40;18.20;;;11.00;99.90;;;;;;5140996;27;20035;-76
2021/12/15 08:29:03;;;;;;;26.92;16.42;;;10.90;99.90;;;;;;5122310;27;20053;-76
2021/12/15 08:31:29;;;;;;;26.45;15.88;;;11.00;99.90;;;;;;5140352;27;20058;-76
2021/12/15 08:33:55;;;;;;;30.95;15.07;;;11.00;99.90;;;;;;5140568;27;20047;-76
2021/12/15 08:36:20;;;;;;;26.85;14.32;;;11.00;99.90;;;;;;5140910;27;20248;-76
2021/12/15 08:38:49;;;;;;;22.77;14.80;;;11.00;99.90;;;;;;5139693;27;20046;-76
2021/12/15 08:41:20;;;;;;;24.23;14.07;;;11.00;99.90;;;;;;5140180;27;20129;-76
2021/12/15 08:43:45;;;;;;;26.27;14.15;;;11.10;99.90;;;;;;5118747;27;20049;-76
2021/12/15 08:46:16;;;;;;;28.70;16.15;;;11.00;99.90;;;;;;5141587;27;20039;-78
2021/12/15 08:48:43;;;;;;;25.60;14.45;;;11.00;99.90;;;;;;5118805;27;20054;-76
2021/12/15 08:51:11;;;;;;;28.42;16.15;;;11.10;99.90;;;;;;5119877;27;20046;-77
2021/12/15 08:53:38;;;;;;;27.98;16.75;;;11.10;99.90;;;;;;5139455;27;20058;-76
2021/12/15 08:56:04;;;;;;;23.40;14.15;;;11.10;99.90;;;;;;5140073;27;20740;-77
2021/12/15 08:58:30;;;;;;;22.77;13.05;;;11.10;99.90;;;;;;5137209;27;20043;-76
2021/12/15 09:00:57;;;;;;;23.20;15.77;;;11.10;99.90;;;;;;5137988;27;20502;-76
2021/12/15 09:03:24;;;;;;;27.67;14.43;;;11.10;99.90;;;;;;5136628;27;21008;-76
2021/12/15 09:05:52;;;;;;;24.23;15.73;;;11.10;99.90;;;;;;5135904;27;20089;-76
2021/12/15 09:08:20;;;;;;;25.83;15.25;;;11.10;99.90;;;;;;5117462;27;20074;-76
2021/12/15 09:10:45;;;;;;;27.58;14.93;;;11.10;99.90;;;;;;5135216;27;20050;-76
2021/12/15 09:13:12;;;;;;;26.70;14.68;;;11.10;99.90;;;;;;5137325;27;20042;-76
2021/12/15 09:15:39;;;;;;;26.75;13.38;;;11.10;99.90;;;;;;5118949;27;20782;-76
2021/12/15 09:18:05;;;;;;;24.52;13.48;;;11.90;99.90;;;;;;5137995;27;20112;-75
2021/12/15 09:20:32;;;;;;;24.50;14.63;;;11.20;99.90;;;;;;5136279;27;20772;-77
2021/12/15 09:23:01;;;;;;;25.23;14.30;;;11.20;99.90;;;;;;5138087;27;20043;-76
2021/12/15 09:25:27;;;;;;;22.05;14.68;;;11.20;99.90;;;;;;5135868;27;20038;-76
2021/12/15 09:27:53;;;;;;;30.15;17.10;;;11.20;99.90;;;;;;5136450;27;20042;-76
2021/12/15 09:30:21;;;;;;;21.90;14.07;;;11.20;99.90;;;;;;5137095;27;20041;-76
2021/12/15 09:32:47;;;;;;;23.80;13.50;;;11.20;99.90;;;;;;5138358;27;20050;-76
2021/12/15 09:35:16;;;;;;;23.08;13.98;;;11.20;99.90;;;;;;5120407;27;20549;-76
2021/12/15 09:37:42;;;;;;;23.85;12.50;;;11.20;99.90;;;;;;5140907;27;20070;-76
2021/12/15 09:40:10;;;;;;;28.60;13.77;;;11.20;99.90;;;;;;5120122;27;20128;-76
2021/12/15 09:42:39;;;;;;;24.48;12.77;;;11.30;99.90;;;;;;5138858;27;20124;-74
2021/12/15 10:06:46;;;;;;;19.73;12.15;;;11.00;99.90;;;;;;5135594;27;20865;-75
2021/12/15 10:18:16;;;;;;;21.85;11.65;;;11.00;99.90;;;;;;5135579;27;20293;-75
2021/12/15 10:20:37;;;;;;;17.10;10.40;;;11.10;99.90;;;;;;5136560;27;20043;-75
2021/12/15 10:23:05;;;;;;;21.42;11.13;;;11.10;99.90;;;;;;5135466;27;20147;-75
2021/12/15 10:25:35;;;;;;;18.15;10.43;;;11.10;99.90;;;;;;5137549;27;20070;-75
2021/12/15 10:28:21;;;;;;;18.38;11.18;;;11.20;99.90;;;;;;5134202;27;20078;-75
2021/12/15 10:31:13;;;;;;;16.10;10.15;;;11.20;99.90;;;;;;5136561;27;20035;-75
2021/12/15 10:34:03;;;;;;;16.65;10.35;;;11.30;99.90;;;;;;5131567;27;20714;-75
2021/12/15 10:36:35;;;;;;;15.63;9.82;;;11.30;99.90;;;;;;5118001;27;20051;-75
2021/12/15 10:39:08;;;;;;;13.50;9.38;;;11.40;99.90;;;;;;5135114;27;20292;-75
2021/12/15 10:41:39;;;;;;;16.17;9.38;;;11.30;99.90;;;;;;5133440;27;20134;-75
2021/12/15 10:44:13;;;;;;;14.48;9.07;;;11.40;99.90;;;;;;5137026;27;20047;-75
2021/12/15 10:46:41;;;;;;;;;;;11.40;99.90;;;;;;5140129;27;20715;-75
2021/12/15 10:49:26;;;;;;;17.00;9.60;;;11.30;99.90;;;;;;5138719;27;19922;-76
2021/12/15 10:52:07;;;;;;;18.52;9.32;;;11.40;99.90;;;;;;5137827;27;20058;-75
2021/12/15 10:54:40;;;;;;;13.05;8.93;;;11.40;99.90;;;;;;5118976;27;20047;-75
2021/12/15 10:57:15;;;;;;;18.90;9.40;;;11.50;99.90;;;;;;5137855;27;20049;-75
2021/12/15 10:59:48;;;;;;;19.38;9.55;;;11.50;99.90;;;;;;5136904;27;20904;-75
2021/12/15 11:02:21;;;;;;;19.05;9.48;;;11.50;99.90;;;;;;5114803;27;20074;-75
2021/12/15 11:05:00;;;;;;;21.10;11.05;;;11.60;99.90;;;;;;5135993;27;20829;-75
2021/12/15 11:07:29;;;;;;;16.15;8.13;;;11.60;99.90;;;;;;5136361;27;20043;-75
2021/12/15 11:10:25;;;;;;;16.60;9.35;;;11.60;99.90;;;;;;5135616;27;20994;-75
2021/12/15 11:12:53;;;;;;;14.90;8.98;;;11.70;99.90;;;;;;5135740;27;20062;-71
2021/12/15 11:15:28;;;;;;;11.40;7.78;;;11.70;99.90;;;;;;5119234;27;20078;-68
2021/12/15 11:17:58;;;;;;;11.75;7.25;;;11.80;99.90;;;;;;5139624;27;20042;-66
2021/12/15 11:20:32;;;;;;;14.98;8.48;;;11.80;99.90;;;;;;5119711;27;20055;-68
2021/12/15 11:23:00;;;;;;;12.80;8.18;;;11.70;99.90;;;;;;5138251;27;20373;-71
2021/12/15 11:25:49;;;;;;;13.77;8.20;;;11.80;99.90;;;;;;5138993;27;20106;-71
2021/12/15 11:28:16;;;;;;;18.48;8.77;;;11.80;99.90;;;;;;5139490;27;20055;-72
2021/12/15 11:31:03;;;;;;;11.82;7.65;;;11.80;99.90;;;;;;5139358;27;20049;-71
2021/12/15 11:33:32;;;;;;;12.65;7.50;;;11.70;99.90;;;;;;5137215;27;20047;-71
2021/12/15 11:36:05;;;;;;;15.77;7.15;;;11.80;99.90;;;;;;5138064;27;20039;-71
2021/12/15 11:38:37;;;;;;;;;;;11.70;99.90;;;;;;5119982;27;20088;-71
2021/12/15 11:41:16;;;;;;;12.63;7.30;;;11.70;99.90;;;;;;5138532;27;20415;-67
2021/12/15 11:43:54;;;;;;;11.18;6.18;;;11.70;99.90;;;;;;5121609;27;20057;-71
2021/12/15 11:46:26;;;;;;;9.35;6.70;;;11.70;99.90;;;;;;5140908;27;20569;-71
2021/12/15 11:49:16;;;;;;;11.02;6.97;;;11.70;99.90;;;;;;5139285;27;20039;-70
2021/12/15 11:52:15;;;;;;;10.25;7.18;;;11.80;99.90;;;;;;5118027;27;20061;-71
2021/12/15 11:54:48;;;;;;;10.95;6.60;;;11.70;99.90;;;;;;5089804;27;20050;-70
2021/12/15 11:57:22;;;;;;;12.40;7.57;;;11.70;99.90;;;;;;5136540;27;20579;-70
2021/12/15 11:59:50;;;;;;;9.95;7.03;;;11.70;99.90;;;;;;5140309;27;20062;-71
2021/12/15 12:02:23;;;;;;;10.25;5.75;;;11.60;99.90;;;;;;5139785;27;20123;-71
2021/12/15 12:04:52;;;;;;;12.15;6.32;;;11.70;99.90;;;;;;5120640;27;20479;-70
2021/12/15 12:07:31;;;;;;;10.68;5.97;;;11.50;99.90;;;;;;5119414;27;20134;-70
2021/12/15 12:10:01;;;;;;;9.65;6.35;;;11.70;99.90;;;;;;5119163;27;20494;-70
2021/12/15 12:12:38;;;;;;;13.05;5.70;;;11.70;99.90;;;;;;5137982;27;20053;-70
2021/12/15 12:15:06;;;;;;;11.35;6.53;;;11.80;99.90;;;;;;5136614;27;20126;-71
2021/12/15 12:17:35;;;;;;;9.38;5.75;;;11.80;99.90;;;;;;5135238;27;20112;-70
2021/12/15 12:20:18;;;;;;;9.88;6.05;;;11.80;99.90;;;;;;5116188;27;20364;-70
2021/12/15 12:22:45;;;;;;;7.13;5.38;;;11.80;99.90;;;;;;5135090;27;20747;-70
2021/12/15 12:25:24;;;;;;;11.38;5.60;;;11.80;99.90;;;;;;5119255;27;20042;-70
2021/12/15 12:27:51;;;;;;;7.65;4.72;;;11.80;99.90;;;;;;5137165;27;20039;-70
2021/12/15 12:30:24;;;;;;;9.05;4.90;;;11.80;99.90;;;;;;5137698;27;20500;-70
2021/12/15 12:32:51;;;;;;;9.00;4.90;;;11.80;99.90;;;;;;5118026;27;20128;-65
2021/12/15 12:35:19;;;;;;;10.13;5.05;;;11.80;99.90;;;;;;5137232;27;20095;-67
2021/12/15 12:37:53;;;;;;;7.25;5.05;;;11.80;99.90;;;;;;5119523;27;20039;-68
2021/12/15 12:40:23;;;;;;;8.45;5.32;;;11.70;99.90;;;;;;5118915;27;20050;-68
2021/12/15 12:42:49;;;;;;;10.55;5.55;;;11.70;99.90;;;;;;5135145;27;20687;-68
2021/12/15 12:45:32;;;;;;;8.70;5.13;;;11.70;99.90;;;;;;5118635;27;20050;-68
2021/12/15 12:59:27;;;;;;;8.05;4.38;;;11.50;99.90;;;;;;5135064;27;20058;-69
2021/12/15 13:01:55;;;;;;;11.98;5.80;;;11.50;99.90;;;;;;5134293;27;20039;-68
2021/12/15 13:04:21;;;;;;;9.98;4.65;;;11.50;99.90;;;;;;5134572;27;20039;-68
2021/12/15 13:06:47;;;;;;;6.72;4.22;;;11.50;99.90;;;;;;5130640;27;20080;-68
2021/12/15 13:09:16;;;;;;;6.00;4.00;;;11.50;99.90;;;;;;5133989;27;20134;-68
2021/12/15 13:11:47;;;;;;;8.25;5.00;;;11.40;99.90;;;;;;5115980;27;20590;-69
2021/12/15 13:14:31;;;;;;;6.90;3.72;;;11.40;99.90;;;;;;5140211;27;20043;-68
2021/12/15 13:16:59;;;;;;;6.38;3.72;;;11.40;99.90;;;;;;5130581;27;20095;-69
2021/12/15 13:19:40;;;;;;;7.15;3.42;;;11.40;99.90;;;;;;5135408;27;20051;-70
2021/12/15 13:23:07;;;;;;;6.45;3.30;;;11.40;99.90;;;;;;5117696;27;21097;-69
2021/12/15 13:31:20;;;;;;;3.80;2.28;;;11.30;99.90;;;;;;5133669;27;20181;-70
2021/12/15 13:33:57;;;;;;;8.57;3.03;;;11.30;99.90;;;;;;5132156;27;20161;-69
2021/12/15 13:36:28;;;;;;;9.18;2.85;;;11.20;99.90;;;;;;5116252;27;20134;-69
2021/12/15 13:39:09;;;;;;;6.03;2.70;;;11.20;99.90;;;;;;5116209;27;20122;-69
2021/12/15 13:42:01;;;;;;;5.60;2.70;;;11.20;99.90;;;;;;5132803;27;20831;-69
2021/12/15 13:44:45;;;;;;;5.40;2.30;;;11.10;99.90;;;;;;5136278;27;20150;-69
2021/12/15 13:47:22;;;;;;;6.85;3.45;;;11.10;99.90;;;;;;5133054;27;20042;-69
2021/12/15 13:49:48;;;;;;;4.25;2.75;;;11.00;99.90;;;;;;5133629;27;20038;-69
2021/12/15 13:52:45;;;;;;;4.15;2.80;;;10.90;99.90;;;;;;5135782;27;20464;-69
2021/12/15 13:55:13;;;;;;;4.68;2.50;;;10.80;99.90;;;;;;5137396;27;20054;-69
2021/12/15 13:57:48;;;;;;;4.45;2.25;;;10.80;99.90;;;;;;5138250;27;20082;-69
2021/12/15 14:00:32;;;;;;;4.00;2.75;;;10.70;99.90;;;;;;5135954;27;20194;-69
2021/12/15 14:03:10;;;;;;;6.68;2.50;;;10.70;99.90;;;;;;5113367;27;20846;-69
2021/12/15 14:05:41;;;;;;;2.83;2.63;;;10.70;99.90;;;;;;5115276;27;20046;-69
2021/12/15 14:08:29;;;;;;;4.10;2.65;;;10.60;99.90;;;;;;5134513;27;20071;-68
2021/12/15 14:11:16;;;;;;;5.97;2.33;;;10.60;99.90;;;;;;5133347;27;20122;-69
2021/12/15 14:13:47;;;;;;;3.35;2.00;;;10.50;99.90;;;;;;5131873;27;20821;-69
2021/12/15 14:16:14;;;;;;;6.53;2.45;;;10.50;99.90;;;;;;5131365;27;20053;-69
2021/12/15 14:18:40;;;;;;;4.88;2.47;;;10.40;99.90;;;;;;5134804;27;20116;-70
2021/12/15 14:21:16;;;;;;;3.10;2.47;;;10.30;99.90;;;;;;5115586;27;20112;-69